createdAt,value
2023-03-08T00:02:01.810Z,-23774.06
2023-03-08T00:08:15.826Z,-23775.57
2023-03-08T00:10:44.358Z,-23775.10
2023-03-08T00:13:16.237Z,-23775.29
2023-03-08T00:15:44.765Z,-23775.35
2023-03-08T00:18:14.277Z,-23775.38
2023-03-08T00:20:43.131Z,-23775.48
2023-03-08T00:23:11.359Z,-23775.89
2023-03-08T00:25:39.739Z,-23776.33
2023-03-08T00:28:08.283Z,-23776.55
2023-03-08T00:30:37.120Z,-23776.61
2023-03-08T00:33:05.647Z,-23776.83
2023-03-08T00:35:33.818Z,-23777.31
2023-03-08T00:38:03.132Z,-23777.46
2023-03-08T00:40:31.566Z,-23777.46
2023-03-08T00:43:01.513Z,-23777.43
2023-03-08T00:45:29.965Z,-23777.56
2023-03-08T00:47:58.276Z,-23777.97
2023-03-08T00:50:26.599Z,-23778.47
2023-03-08T00:52:54.688Z,-23778.95
2023-03-08T00:55:22.934Z,-23779.61
2023-03-08T00:57:51.499Z,-23780.24
2023-03-08T01:00:26.770Z,-23780.87
2023-03-08T01:02:55.803Z,-23781.62
2023-03-08T01:05:24.694Z,-23782.38
2023-03-08T01:07:52.911Z,-23782.98
2023-03-08T01:10:21.254Z,-23783.73
2023-03-08T01:12:51.314Z,-23784.64
2023-03-08T01:15:19.499Z,-23785.34
2023-03-08T01:17:47.809Z,-23785.62
2023-03-08T01:20:16.064Z,-23785.59
2023-03-08T01:22:44.192Z,-23785.21
2023-03-08T01:25:12.470Z,-23785.21
2023-03-08T01:27:40.616Z,-23785.56
2023-03-08T01:30:09.596Z,-23785.91
2023-03-08T01:32:39.614Z,-23785.97
2023-03-08T01:35:08.273Z,-23786.29
2023-03-08T01:37:36.460Z,-23786.72
2023-03-08T01:40:05.894Z,-23787.04
2023-03-08T01:42:34.517Z,-23787.32
2023-03-08T01:45:04.641Z,-23787.86
2023-03-08T01:47:36.328Z,-23788.42
2023-03-08T01:50:18.601Z,-23788.93
2023-03-08T01:52:49.622Z,-23789.06
2023-03-08T01:55:18.462Z,-23789.65
2023-03-08T01:57:51.892Z,-23790.41
2023-03-08T02:00:23.125Z,-23791.04
2023-03-08T02:03:05.085Z,-23791.48
2023-03-08T02:05:33.348Z,-23791.89
2023-03-08T02:08:09.284Z,-23792.58
2023-03-08T02:10:38.600Z,-23793.12
2023-03-08T02:13:08.100Z,-23793.81
2023-03-08T02:15:39.010Z,-23794.69
2023-03-08T02:18:07.466Z,-23795.51
2023-03-08T02:20:40.653Z,-23796.33
2023-03-08T02:23:13.345Z,-23796.74
2023-03-08T02:25:50.235Z,-23797.18
2023-03-08T02:28:19.951Z,-23797.43
2023-03-08T02:30:48.208Z,-23797.78
2023-03-08T02:33:20.306Z,-23798.25
2023-03-08T02:35:48.604Z,-23798.47
2023-03-08T02:38:17.541Z,-23798.72
2023-03-08T02:40:46.239Z,-23798.94
2023-03-08T02:43:14.445Z,-23799.07
2023-03-08T02:45:42.575Z,-23799.32
2023-03-08T02:48:12.450Z,-23799.29
2023-03-08T02:50:42.249Z,-23799.19
2023-03-08T02:53:10.585Z,-23799.07
2023-03-08T02:55:40.010Z,-23798.88
2023-03-08T02:58:12.907Z,-23798.72
2023-03-08T03:00:41.291Z,-23798.25
2023-03-08T03:03:11.697Z,-23797.81
2023-03-08T03:05:43.804Z,-23797.81
2023-03-08T03:08:14.056Z,-23798.09
2023-03-08T03:10:42.995Z,-23798.53
2023-03-08T03:13:12.803Z,-23798.79
2023-03-08T03:15:41.155Z,-23799.35
2023-03-08T03:18:11.961Z,-23799.66
2023-03-08T03:20:40.136Z,-23800.11
2023-03-08T03:23:11.028Z,-23800.77
2023-03-08T03:25:44.541Z,-23801.30
2023-03-08T03:28:14.997Z,-23801.90
2023-03-08T03:30:45.008Z,-23802.59
2023-03-08T03:33:15.099Z,-23803.25
2023-03-08T03:35:44.159Z,-23803.70
2023-03-08T03:38:12.311Z,-23804.13
2023-03-08T03:40:46.501Z,-23804.16
2023-03-08T03:43:14.990Z,-23804.61
2023-03-08T03:45:43.273Z,-23804.70
2023-03-08T03:48:11.559Z,-23804.86
2023-03-08T03:50:39.805Z,-23804.73
2023-03-08T03:53:13.051Z,-23804.92
2023-03-08T03:55:41.543Z,-23804.82
2023-03-08T03:58:10.054Z,-23804.80
2023-03-08T04:00:58.648Z,-23804.79
2023-03-08T04:03:30.190Z,-23804.80
2023-03-08T04:06:16.799Z,-23804.48
2023-03-08T04:08:52.109Z,-23804.01
2023-03-08T04:11:22.109Z,-23803.47
2023-03-08T04:13:50.524Z,-23803.47
2023-03-08T04:16:22.657Z,-23803.54
2023-03-08T04:18:54.367Z,-23803.76
2023-03-08T04:21:22.836Z,-23803.95
2023-03-08T04:23:53.284Z,-23803.85
2023-03-08T04:26:22.280Z,-23803.88
2023-03-08T04:28:50.485Z,-23804.04
2023-03-08T04:31:20.360Z,-23804.29
2023-03-08T04:33:49.986Z,-23804.51
2023-03-08T04:36:18.327Z,-23804.82
2023-03-08T04:38:47.202Z,-23804.86
2023-03-08T04:41:18.168Z,-23805.27
2023-03-08T04:43:58.453Z,-23805.77
2023-03-08T04:46:36.933Z,-23806.40
2023-03-08T04:49:05.619Z,-23807.25
2023-03-08T04:51:38.563Z,-23807.69
2023-03-08T04:54:08.088Z,-23808.32
2023-03-08T04:56:39.491Z,-23808.79
2023-03-08T04:59:10.428Z,-23809.42
2023-03-08T05:01:38.852Z,-23810.15
2023-03-08T05:04:10.535Z,-23810.84
2023-03-08T05:06:39.880Z,-23811.65
2023-03-08T05:09:08.270Z,-23812.38
2023-03-08T05:11:37.388Z,-23812.94
2023-03-08T05:14:09.440Z,-23813.70
2023-03-08T05:16:37.883Z,-23814.39
2023-03-08T05:19:06.045Z,-23814.73
2023-03-08T05:21:38.190Z,-23815.24
2023-03-08T05:24:06.799Z,-23815.93
2023-03-08T05:26:37.246Z,-23816.37
2023-03-08T05:29:06.976Z,-23816.97
2023-03-08T05:31:37.983Z,-23817.85
2023-03-08T05:34:07.284Z,-23818.64
2023-03-08T05:36:38.079Z,-23819.11
2023-03-08T05:39:08.063Z,-23819.36
2023-03-08T05:41:42.053Z,-23820.06
2023-03-08T05:44:13.380Z,-23820.75
2023-03-08T05:46:42.475Z,-23821.72
2023-03-08T05:49:11.657Z,-23822.98
2023-03-08T05:51:40.299Z,-23824.14
2023-03-08T05:54:08.501Z,-23825.18
2023-03-08T05:56:38.965Z,-23825.71
2023-03-08T05:59:11.949Z,-23825.81
2023-03-08T06:01:41.342Z,-23825.21
2023-03-08T06:04:21.032Z,-23824.77
2023-03-08T06:06:54.409Z,-23824.93
2023-03-08T06:09:24.422Z,-23825.53
2023-03-08T06:11:53.577Z,-23826.13
2023-03-08T06:14:21.839Z,-23827.01
2023-03-08T06:16:50.279Z,-23828.14
2023-03-08T06:19:19.363Z,-23829.24
2023-03-08T06:21:48.117Z,-23829.84
2023-03-08T06:24:17.249Z,-23830.71
2023-03-08T06:26:46.520Z,-23831.63
2023-03-08T06:29:16.424Z,-23832.54
2023-03-08T06:31:45.020Z,-23833.11
2023-03-08T06:34:13.837Z,-23834.02
2023-03-08T06:36:48.465Z,-23834.49
2023-03-08T06:39:16.812Z,-23835.84
2023-03-08T06:41:45.192Z,-23837.41
2023-03-08T06:44:14.585Z,-23838.77
2023-03-08T06:46:42.971Z,-23839.87
2023-03-08T06:49:12.888Z,-23841.43
2023-03-08T06:51:41.368Z,-23843.23
2023-03-08T06:54:11.426Z,-23845.33
2023-03-08T06:56:42.702Z,-23847.63
2023-03-08T06:59:12.235Z,-23849.98
2023-03-08T07:01:41.008Z,-23852.81
2023-03-08T07:04:09.208Z,-23855.52
2023-03-08T07:06:37.532Z,-23858.28
2023-03-08T07:09:07.700Z,-23860.89
2023-03-08T07:11:36.009Z,-23862.99
2023-03-08T07:14:04.143Z,-23865.16
2023-03-08T07:16:32.324Z,-23867.17
2023-03-08T07:19:02.524Z,-23869.40
2023-03-08T07:21:34.296Z,-23871.72
2023-03-08T07:24:02.606Z,-23874.08
2023-03-08T07:26:31.108Z,-23876.71
2023-03-08T07:28:59.629Z,-23878.38
2023-03-08T07:31:29.160Z,-23879.76
2023-03-08T07:33:57.664Z,-23881.17
2023-03-08T07:36:26.655Z,-23881.93
2023-03-08T07:38:54.876Z,-23883.18
2023-03-08T07:41:23.103Z,-23884.59
2023-03-08T07:43:51.297Z,-23886.10
2023-03-08T07:46:24.501Z,-23887.26
2023-03-08T07:48:55.391Z,-23889.30
2023-03-08T07:51:24.304Z,-23891.59
2023-03-08T07:53:52.972Z,-23894.10
2023-03-08T07:56:21.444Z,-23896.61
2023-03-08T07:58:49.660Z,-23898.18
2023-03-08T08:01:18.476Z,-23899.28
2023-03-08T08:03:46.805Z,-23900.57
2023-03-08T08:06:16.399Z,-23901.98
2023-03-08T08:08:44.891Z,-23903.29
2023-03-08T08:11:17.170Z,-23904.43
2023-03-08T08:13:49.456Z,-23905.62
2023-03-08T08:16:18.338Z,-23906.96
2023-03-08T08:18:47.120Z,-23908.22
2023-03-08T08:21:16.065Z,-23909.47
2023-03-08T08:23:44.578Z,-23911.36
2023-03-08T08:26:17.838Z,-23913.27
2023-03-08T08:28:47.340Z,-23914.78
2023-03-08T08:31:22.596Z,-23916.97
2023-03-08T08:33:51.144Z,-23919.38
2023-03-08T08:36:20.188Z,-23922.27
2023-03-08T08:38:48.401Z,-23924.75
2023-03-08T08:41:18.236Z,-23926.85
2023-03-08T08:43:46.750Z,-23928.92
2023-03-08T08:46:15.984Z,-23931.14
2023-03-08T08:48:44.243Z,-23933.90
2023-03-08T08:51:13.469Z,-23936.18
2023-03-08T08:53:41.910Z,-23938.25
2023-03-08T08:56:31.798Z,-23940.61
2023-03-08T08:59:01.702Z,-23942.48
2023-03-08T09:01:32.958Z,-23943.17
2023-03-08T09:04:18.154Z,-23942.86
2023-03-08T09:06:47.517Z,-23942.70
2023-03-08T09:09:18.015Z,-23943.58
2023-03-08T09:11:55.213Z,-23945.30
2023-03-08T09:14:24.007Z,-23947.59
2023-03-08T09:16:53.261Z,-23949.50
2023-03-08T09:19:21.515Z,-23951.57
2023-03-08T09:21:50.128Z,-23953.44
2023-03-08T09:24:18.426Z,-23955.89
2023-03-08T09:26:49.291Z,-23958.52
2023-03-08T09:29:17.446Z,-23961.08
2023-03-08T09:31:45.833Z,-23963.96
2023-03-08T09:34:15.619Z,-23965.78
2023-03-08T09:36:44.173Z,-23967.63
2023-03-08T09:39:13.949Z,-23969.16
2023-03-08T09:41:49.565Z,-23970.32
2023-03-08T09:44:43.666Z,-23971.29
2023-03-08T09:47:57.100Z,-23971.50
2023-03-08T09:50:54.491Z,-23972.51
2023-03-08T09:53:33.837Z,-23972.66
2023-03-08T09:56:03.594Z,-23972.88
2023-03-08T09:58:35.878Z,-23972.73
2023-03-08T10:01:42.833Z,-23973.13
2023-03-08T10:04:29.839Z,-23974.70
2023-03-08T10:07:24.487Z,-23975.89
2023-03-08T10:10:11.593Z,-23976.76
2023-03-08T10:12:44.906Z,-23977.98
2023-03-08T10:15:17.856Z,-23978.98
2023-03-08T10:17:59.735Z,-23979.70
2023-03-08T10:20:30.224Z,-23980.32
2023-03-08T10:23:18.890Z,-23980.11
2023-03-08T10:25:47.786Z,-23979.08
2023-03-08T10:28:18.112Z,-23978.20
2023-03-08T10:30:52.406Z,-23978.20
2023-03-08T10:33:35.710Z,-23978.42
2023-03-08T10:36:06.576Z,-23979.02
2023-03-08T10:38:36.907Z,-23979.55
2023-03-08T10:41:16.548Z,-23980.11
2023-03-08T10:43:50.626Z,-23980.14
2023-03-08T10:46:20.437Z,-23978.83
2023-03-08T10:48:48.780Z,-23977.57
2023-03-08T10:51:25.172Z,-23975.29
2023-03-08T10:54:02.942Z,-23973.48
2023-03-08T10:56:44.871Z,-23971.69
2023-03-08T10:59:28.245Z,-23969.44
2023-03-08T11:01:59.407Z,-23967.31
2023-03-08T11:04:29.071Z,-23966.22
2023-03-08T11:07:12.861Z,-23965.09
2023-03-08T11:09:41.216Z,-23964.31
2023-03-08T11:12:11.661Z,-23963.12
2023-03-08T11:14:41.818Z,-23962.15
2023-03-08T11:17:18.963Z,-23961.18
2023-03-08T11:19:54.091Z,-23960.36
2023-03-08T11:22:32.109Z,-23958.83
2023-03-08T11:25:26.934Z,-23957.26
2023-03-08T11:28:32.664Z,-23955.04
2023-03-08T11:31:04.358Z,-23951.60
2023-03-08T11:33:44.839Z,-23948.84
2023-03-08T11:36:18.760Z,-23947.37
2023-03-08T11:39:10.117Z,-23946.74
2023-03-08T11:41:42.893Z,-23946.33
2023-03-08T11:44:22.438Z,-23945.49
2023-03-08T11:47:21.745Z,-23944.39
2023-03-08T11:50:06.183Z,-23943.83
2023-03-08T11:52:53.879Z,-23943.52
2023-03-08T11:55:58.808Z,-23943.61
2023-03-08T11:58:29.865Z,-23943.86
2023-03-08T12:01:02.592Z,-23944.93
2023-03-08T12:03:43.639Z,-23946.33
2023-03-08T12:06:28.219Z,-23948.03
2023-03-08T12:09:10.292Z,-23949.44
2023-03-08T12:11:42.113Z,-23950.84
2023-03-08T12:14:19.194Z,-23952.22
2023-03-08T12:17:02.636Z,-23954.85
2023-03-08T12:19:55.556Z,-23957.77
2023-03-08T12:22:23.564Z,-23961.55
2023-03-08T12:25:16.558Z,-23964.37
2023-03-08T12:27:50.276Z,-23967.34
2023-03-08T12:30:42.064Z,-23969.69
2023-03-08T12:33:13.434Z,-23972.51
2023-03-08T12:36:02.252Z,-23975.23
2023-03-08T12:38:36.490Z,-23977.92
2023-03-08T12:41:22.959Z,-23980.33
2023-03-08T12:44:03.780Z,-23982.33
2023-03-08T12:47:16.348Z,-23985.33
2023-03-08T12:49:46.679Z,-23989.12
2023-03-08T12:52:20.402Z,-23991.28
2023-03-08T12:55:01.990Z,-23993.15
2023-03-08T12:57:33.903Z,-23994.53
2023-03-08T13:00:06.772Z,-23996.66
2023-03-08T13:02:35.346Z,-23999.31
2023-03-08T13:05:19.439Z,-24002.91
2023-03-08T13:08:01.717Z,-24006.19
2023-03-08T13:10:38.030Z,-24007.91
2023-03-08T13:13:23.571Z,-24007.84
2023-03-08T13:16:07.031Z,-24008.50
2023-03-08T13:18:37.050Z,-24009.16
2023-03-08T13:21:20.366Z,-24010.32
2023-03-08T13:24:10.781Z,-24011.50
2023-03-08T13:26:51.479Z,-24012.13
2023-03-08T13:29:20.530Z,-24012.04
2023-03-08T13:31:49.020Z,-24011.91
2023-03-08T13:34:31.096Z,-24011.35
2023-03-08T13:37:00.244Z,-24010.88
2023-03-08T13:39:30.325Z,-24011.16
2023-03-08T13:42:09.333Z,-24010.44
2023-03-08T13:44:38.051Z,-24009.75
2023-03-08T13:47:18.983Z,-24009.38
2023-03-08T13:49:47.254Z,-24009.47
2023-03-08T13:52:18.449Z,-24009.41
2023-03-08T13:54:53.707Z,-24009.63
2023-03-08T13:57:24.008Z,-24010.03
2023-03-08T13:59:54.804Z,-24010.72
2023-03-08T14:02:25.620Z,-24011.57
2023-03-08T14:04:54.025Z,-24012.19
2023-03-08T14:07:32.254Z,-24012.44
2023-03-08T14:10:00.479Z,-24012.97
2023-03-08T14:12:31.537Z,-24013.25
2023-03-08T14:15:02.727Z,-24013.63
2023-03-08T14:17:32.634Z,-24013.79
2023-03-08T14:20:02.701Z,-24014.13
2023-03-08T14:22:39.547Z,-24014.10
2023-03-08T14:25:24.809Z,-24013.97
2023-03-08T14:27:55.839Z,-24013.54
2023-03-08T14:30:29.055Z,-24013.00
2023-03-08T14:33:14.245Z,-24011.63
2023-03-08T14:35:54.082Z,-24010.41
2023-03-08T14:38:31.147Z,-24009.56
2023-03-08T14:41:03.946Z,-24008.79
2023-03-08T14:43:32.405Z,-24008.10
2023-03-08T14:46:07.194Z,-24006.97
2023-03-08T14:48:36.579Z,-24005.88
2023-03-08T14:51:17.499Z,-24005.10
2023-03-08T14:54:03.096Z,-24004.07
2023-03-08T14:56:33.336Z,-24002.97
2023-03-08T14:59:02.454Z,-24001.56
2023-03-08T15:01:34.178Z,-24001.16
2023-03-08T15:04:02.844Z,-24000.44
2023-03-08T15:06:32.934Z,-23999.53
2023-03-08T15:09:01.709Z,-23998.44
2023-03-08T15:11:31.807Z,-23997.34
2023-03-08T15:14:00.416Z,-23996.22
2023-03-08T15:16:30.415Z,-23995.41
2023-03-08T15:18:59.179Z,-23994.62
2023-03-08T15:21:28.244Z,-23993.90
2023-03-08T15:24:01.038Z,-23992.65
2023-03-08T15:26:34.096Z,-23991.71
2023-03-08T15:29:04.946Z,-23990.80
2023-03-08T15:31:33.385Z,-23990.52
2023-03-08T15:34:01.780Z,-23990.27
2023-03-08T15:36:34.977Z,-23989.55
2023-03-08T15:39:04.751Z,-23988.68
2023-03-08T15:41:35.218Z,-23987.83
2023-03-08T15:44:03.753Z,-23986.77
2023-03-08T15:46:31.988Z,-23985.83
2023-03-08T15:49:01.669Z,-23985.02
2023-03-08T15:51:31.692Z,-23984.36
2023-03-08T15:54:00.711Z,-23983.70
2023-03-08T15:56:28.973Z,-23983.27
2023-03-08T15:58:59.713Z,-23982.71
2023-03-08T16:01:28.425Z,-23981.80
2023-03-08T16:03:56.685Z,-23981.08
2023-03-08T16:06:25.439Z,-23980.26
2023-03-08T16:08:54.044Z,-23979.77
2023-03-08T16:11:23.551Z,-23979.48
2023-03-08T16:13:52.539Z,-23979.39
2023-03-08T16:16:21.324Z,-23978.67
2023-03-08T16:18:54.231Z,-23978.01
2023-03-08T16:21:23.087Z,-23978.07
2023-03-08T16:23:51.240Z,-23977.95
2023-03-08T16:26:19.500Z,-23977.92
2023-03-08T16:28:47.879Z,-23977.70
2023-03-08T16:31:16.456Z,-23976.98
2023-03-08T16:33:45.242Z,-23976.29
2023-03-08T16:36:13.775Z,-23975.95
2023-03-08T16:38:43.694Z,-23974.95
2023-03-08T16:41:13.592Z,-23974.35
2023-03-08T16:43:48.789Z,-23973.67
2023-03-08T16:46:22.585Z,-23973.07
2023-03-08T16:48:54.567Z,-23972.38
2023-03-08T16:51:26.221Z,-23971.60
2023-03-08T16:53:54.719Z,-23970.94
2023-03-08T16:56:28.460Z,-23970.19
2023-03-08T16:58:59.445Z,-23969.41
2023-03-08T17:01:29.078Z,-23968.63
2023-03-08T17:03:58.117Z,-23967.41
2023-03-08T17:06:29.417Z,-23966.03
2023-03-08T17:08:59.203Z,-23964.71
2023-03-08T17:11:29.336Z,-23963.53
2023-03-08T17:14:06.456Z,-23961.77
2023-03-08T17:16:35.745Z,-23960.18
2023-03-08T17:19:05.852Z,-23958.83
2023-03-08T17:21:38.462Z,-23957.36
2023-03-08T17:24:13.108Z,-23955.39
2023-03-08T17:26:52.898Z,-23953.79
2023-03-08T17:29:21.813Z,-23951.85
2023-03-08T17:31:51.818Z,-23950.47
2023-03-08T17:34:23.474Z,-23949.09
2023-03-08T17:36:52.218Z,-23947.68
2023-03-08T17:39:21.160Z,-23946.87
2023-03-08T17:41:49.676Z,-23946.14
2023-03-08T17:44:18.176Z,-23945.21
2023-03-08T17:46:46.924Z,-23944.46
2023-03-08T17:49:23.291Z,-23943.20
2023-03-08T17:51:52.506Z,-23941.79
2023-03-08T17:54:20.888Z,-23940.57
2023-03-08T17:56:49.836Z,-23939.35
2023-03-08T17:59:23.760Z,-23938.35
2023-03-08T18:01:52.278Z,-23937.63
2023-03-08T18:04:22.227Z,-23937.06
2023-03-08T18:06:50.892Z,-23936.59
2023-03-08T18:09:19.606Z,-23935.84
2023-03-08T18:11:49.186Z,-23935.28
2023-03-08T18:14:17.453Z,-23935.09
2023-03-08T18:16:46.582Z,-23934.24
2023-03-08T18:19:15.979Z,-23932.96
2023-03-08T18:21:45.483Z,-23931.64
2023-03-08T18:24:13.760Z,-23931.08
2023-03-08T18:26:42.174Z,-23930.45
2023-03-08T18:29:12.574Z,-23930.05
2023-03-08T18:31:41.613Z,-23929.67
2023-03-08T18:34:10.779Z,-23928.98
2023-03-08T18:36:39.011Z,-23928.04
2023-03-08T18:39:08.859Z,-23927.13
2023-03-08T18:41:38.210Z,-23925.94
2023-03-08T18:44:07.869Z,-23924.78
2023-03-08T18:46:36.235Z,-23923.75
2023-03-08T18:49:07.176Z,-23922.55
2023-03-08T18:51:36.663Z,-23921.80
2023-03-08T18:54:05.277Z,-23920.98
2023-03-08T18:56:35.369Z,-23920.39
2023-03-08T18:59:05.498Z,-23919.54
2023-03-08T19:01:33.941Z,-23918.91
2023-03-08T19:04:07.955Z,-23917.66
2023-03-08T19:06:36.653Z,-23916.34
2023-03-08T19:09:12.010Z,-23915.21
2023-03-08T19:11:41.212Z,-23914.21
2023-03-08T19:14:11.445Z,-23913.27
2023-03-08T19:16:42.144Z,-23912.30
2023-03-08T19:19:15.135Z,-23911.51
2023-03-08T19:21:47.024Z,-23910.86
2023-03-08T19:24:16.841Z,-23910.22
2023-03-08T19:26:47.594Z,-23909.85
2023-03-08T19:29:20.286Z,-23909.44
2023-03-08T19:31:55.199Z,-23908.85
2023-03-08T19:34:36.847Z,-23908.16
2023-03-08T19:37:05.968Z,-23907.47
2023-03-08T19:39:36.768Z,-23906.94
2023-03-08T19:42:09.512Z,-23906.27
2023-03-08T19:44:38.307Z,-23905.55
2023-03-08T19:47:10.477Z,-23904.86
2023-03-08T19:49:40.194Z,-23904.11
2023-03-08T19:52:09.913Z,-23903.39
2023-03-08T19:54:39.402Z,-23902.70
2023-03-08T19:57:08.742Z,-23901.88
2023-03-08T19:59:38.846Z,-23901.13
2023-03-08T20:02:07.977Z,-23900.51
2023-03-08T20:04:37.605Z,-23899.91
2023-03-08T20:07:07.395Z,-23898.94
2023-03-08T20:09:36.203Z,-23897.68
2023-03-08T20:12:04.950Z,-23896.61
2023-03-08T20:14:35.002Z,-23895.11
2023-03-08T20:17:05.279Z,-23894.01
2023-03-08T20:19:36.795Z,-23892.85
2023-03-08T20:22:04.997Z,-23891.53
2023-03-08T20:24:35.542Z,-23890.68
2023-03-08T20:27:05.344Z,-23889.59
2023-03-08T20:29:34.563Z,-23888.39
2023-03-08T20:32:03.691Z,-23887.92
2023-03-08T20:34:32.814Z,-23887.80
2023-03-08T20:37:02.773Z,-23887.64
2023-03-08T20:39:30.995Z,-23887.07
2023-03-08T20:41:59.209Z,-23886.85
2023-03-08T20:44:27.486Z,-23886.57
2023-03-08T20:46:55.772Z,-23886.26
2023-03-08T20:49:26.486Z,-23885.88
2023-03-08T20:51:54.572Z,-23885.41
2023-03-08T20:54:23.355Z,-23884.97
2023-03-08T20:56:52.734Z,-23884.34
2023-03-08T20:59:24.230Z,-23884.00
2023-03-08T21:01:56.312Z,-23883.12
2023-03-08T21:04:24.765Z,-23882.24
2023-03-08T21:06:55.776Z,-23880.86
2023-03-08T21:09:24.632Z,-23879.35
2023-03-08T21:11:52.951Z,-23878.25
2023-03-08T21:14:24.032Z,-23876.75
2023-03-08T21:16:53.125Z,-23875.46
2023-03-08T21:19:22.213Z,-23874.27
2023-03-08T21:21:51.617Z,-23873.32
2023-03-08T21:24:21.295Z,-23871.97
2023-03-08T21:26:50.108Z,-23870.69
2023-03-08T21:29:20.023Z,-23869.15
2023-03-08T21:31:50.210Z,-23867.23
2023-03-08T21:34:19.914Z,-23864.31
2023-03-08T21:36:48.413Z,-23861.17
2023-03-08T21:39:18.522Z,-23859.06
2023-03-08T21:41:47.754Z,-23857.90
2023-03-08T21:44:18.027Z,-23856.46
2023-03-08T21:46:46.750Z,-23855.45
2023-03-08T21:49:17.885Z,-23854.38
2023-03-08T21:51:46.166Z,-23853.19
2023-03-08T21:54:15.754Z,-23851.78
2023-03-08T21:56:44.431Z,-23850.30
2023-03-08T21:59:13.130Z,-23848.13
2023-03-08T22:01:42.034Z,-23846.09
2023-03-08T22:04:10.586Z,-23844.11
2023-03-08T22:06:38.674Z,-23842.88
2023-03-08T22:09:10.229Z,-23841.75
2023-03-08T22:11:41.675Z,-23841.03
2023-03-08T22:14:10.663Z,-23840.37
2023-03-08T22:16:41.874Z,-23839.87
2023-03-08T22:19:10.494Z,-23839.02
2023-03-08T22:21:38.723Z,-23838.67
2023-03-08T22:24:10.339Z,-23838.92
2023-03-08T22:26:43.722Z,-23839.11
2023-03-08T22:29:11.936Z,-23839.33
2023-03-08T22:31:41.437Z,-23839.77
2023-03-08T22:34:10.887Z,-23840.21
2023-03-08T22:36:39.141Z,-23840.37
2023-03-08T22:39:08.042Z,-23840.40
2023-03-08T22:41:36.243Z,-23840.09
2023-03-08T22:44:04.789Z,-23840.21
2023-03-08T22:46:34.723Z,-23839.90
2023-03-08T22:49:05.233Z,-23840.12
2023-03-08T22:51:35.757Z,-23840.12
2023-03-08T22:54:08.115Z,-23840.24
2023-03-08T22:56:36.473Z,-23840.24
2023-03-08T22:59:06.850Z,-23840.30
2023-03-08T23:01:35.433Z,-23840.71
2023-03-08T23:04:04.679Z,-23841.47
2023-03-08T23:06:33.833Z,-23841.72
2023-03-08T23:09:06.385Z,-23841.88
2023-03-08T23:11:38.531Z,-23841.79
2023-03-08T23:14:08.586Z,-23841.50
2023-03-08T23:16:42.164Z,-23841.72
2023-03-08T23:19:15.889Z,-23841.63
2023-03-08T23:21:44.723Z,-23841.50
2023-03-08T23:24:15.108Z,-23841.60
2023-03-08T23:26:43.641Z,-23841.63
2023-03-08T23:29:12.580Z,-23841.60
2023-03-08T23:31:44.737Z,-23841.60
2023-03-08T23:34:13.460Z,-23841.63
2023-03-08T23:36:43.155Z,-23841.50
2023-03-08T23:39:11.509Z,-23841.28
2023-03-08T23:41:40.545Z,-23840.84
2023-03-08T23:44:10.241Z,-23841.00
2023-03-08T23:46:38.632Z,-23840.93
2023-03-08T23:49:07.354Z,-23841.38
2023-03-08T23:51:36.099Z,-23841.72
2023-03-08T23:54:05.405Z,-23841.91
2023-03-08T23:56:38.359Z,-23842.16
2023-03-08T23:59:18.150Z,-23842.38
